Time;durP1;ratioP1;P1;durP2;ratioP2;P2;SDS_P1;SDS_P2;PMS_P1;PMS_P2;Temp;Humidity;BMP_temperature;BMP_pressure;BME280_temperature;BME280_humidity;BME280_pressure;Samples;Min_cycle;Max_cycle;Signal;HPM_P1;HPM_P2
2022/10/05 00:01:21;;;;;;;0.10;0.10;;;;;;;17.11;77.37;99587.16;7358586;19;20082;-57
2022/10/05 00:03:46;;;;;;;0.00;0.00;;;;;;;17.08;77.56;99607.59;7357005;19;20045;-57
2022/10/05 00:06:12;;;;;;;0.10;0.10;;;;;;;17.03;77.11;99599.16;7358344;19;20679;-57
2022/10/05 00:08:37;;;;;;;0.10;0.10;;;;;;;16.98;77.68;99590.69;7357746;19;20053;-57
2022/10/05 00:11:08;;;;;;;0.00;0.00;;;;;;;16.96;78.21;99588.19;7354204;19;20007;-56
2022/10/05 00:13:33;;;;;;;0.00;0.00;;;;;;;16.90;77.82;99579.84;7358421;19;20007;-57
2022/10/05 00:16:17;;;;;;;0.00;0.00;;;;;;;16.90;78.18;99571.94;7356711;19;20014;-57
2022/10/05 00:18:46;;;;;;;0.00;0.00;;;;;;;16.84;78.54;99566.13;7357918;19;20102;-58
2022/10/05 00:21:24;;;;;;;0.00;0.00;;;;;;;16.83;78.58;99559.16;7355814;19;20035;-57
2022/10/05 00:23:50;;;;;;;0.00;0.00;;;;;;;16.78;79.05;99556.00;7357003;19;20272;-58
2022/10/05 00:26:20;;;;;;;0.00;0.00;;;;;;;16.80;79.03;99559.34;7358287;19;20025;-59
2022/10/05 00:28:46;;;;;;;0.00;0.00;;;;;;;16.78;78.81;99541.97;7357712;19;20601;-58
2022/10/05 00:31:31;;;;;;;0.00;0.00;;;;;;;16.80;78.81;99546.16;7356677;19;20022;-58
2022/10/05 00:33:57;;;;;;;0.00;0.00;;;;;;;16.74;79.10;99554.50;7358590;19;20018;-58
2022/10/05 00:36:24;;;;;;;0.08;0.08;;;;;;;16.75;79.37;99564.09;7358127;19;20035;-59
2022/10/05 00:38:51;;;;;;;0.10;0.10;;;;;;;16.74;79.55;99567.69;7356507;19;20062;-57
2022/10/05 00:41:19;;;;;;;0.00;0.00;;;;;;;16.76;79.66;99560.50;7357101;19;20462;-59
2022/10/05 00:44:06;;;;;;;0.00;0.00;;;;;;;16.80;78.43;99546.16;7358229;19;20018;-58
2022/10/05 00:46:38;;;;;;;0.10;0.10;;;;;;;16.75;79.32;99537.72;7356341;19;20017;-58
2022/10/05 00:49:28;;;;;;;0.00;0.00;;;;;;;16.78;78.95;99529.63;7354331;19;20068;-59
2022/10/05 00:52:03;;;;;;;0.00;0.00;;;;;;;16.78;79.18;99537.53;7356434;19;20332;-58
2022/10/05 00:54:37;;;;;;;0.00;0.00;;;;;;;16.77;79.50;99535.81;7352802;19;20097;-58
2022/10/05 00:57:32;;;;;;;0.00;0.00;;;;;;;16.77;79.05;99533.19;7355876;19;20034;-59
2022/10/05 01:00:17;;;;;;;0.00;0.00;;;;;;;16.78;78.99;99531.41;7256224;19;2004660;-59
2022/10/05 01:03:08;;;;;;;0.00;0.00;;;;;;;16.76;79.41;99534.13;7356891;19;20281;-58
2022/10/05 01:06:04;;;;;;;0.00;0.00;;;;;;;16.78;78.58;99531.41;7356581;19;20042;-59
2022/10/05 01:08:32;;;;;;;0.10;0.10;;;;;;;16.75;79.58;99521.91;7253105;19;2004349;-58
2022/10/05 01:11:23;;;;;;;0.00;0.00;;;;;;;16.77;78.53;99535.81;7354665;19;20010;-59
2022/10/05 01:13:57;;;;;;;0.00;0.00;;;;;;;16.76;79.28;99534.13;7253090;19;2004412;-58
2022/10/05 01:16:31;;;;;;;0.00;0.00;;;;;;;16.70;78.90;99563.50;7355296;19;20803;-58
2022/10/05 01:19:08;;;;;;;0.00;0.00;;;;;;;16.77;78.59;99583.28;7353349;19;20010;-58
2022/10/05 01:21:44;;;;;;;0.00;0.00;;;;;;;16.76;77.32;99581.59;7359543;19;20011;-59
2022/10/05 01:24:24;;;;;;;0.00;0.00;;;;;;;16.66;77.70;99564.66;7360625;19;20557;-58
2022/10/05 01:26:53;;;;;;;0.00;0.00;;;;;;;16.58;77.39;99561.69;7362445;19;20493;-59
2022/10/05 01:29:39;;;;;;;0.00;0.00;;;;;;;16.47;76.63;99553.63;7357126;19;20022;-58
2022/10/05 01:32:57;;;;;;;0.00;0.00;;;;;;;16.32;76.79;99535.25;7365641;19;20017;-58
2022/10/05 01:35:28;;;;;;;0.00;0.00;;;;;;;16.17;78.49;99531.00;7254078;19;2004524;-58
2022/10/05 01:38:20;;;;;;;0.00;0.00;;;;;;;16.08;77.69;99527.16;7360873;19;20010;-59
2022/10/05 01:41:07;;;;;;;0.00;0.00;;;;;;;15.99;78.16;99537.41;7364551;19;20006;-58
2022/10/05 01:43:42;;;;;;;0.10;0.10;;;;;;;15.80;78.52;99511.41;7363838;19;20016;-59
2022/10/05 01:46:27;;;;;;;0.00;0.00;;;;;;;15.80;78.51;99525.41;7362985;19;20767;-59
2022/10/05 01:49:29;;;;;;;0.00;0.00;;;;;;;15.76;78.53;99526.56;7365981;19;20007;-59
2022/10/05 01:52:13;;;;;;;0.00;0.00;;;;;;;15.68;78.89;99522.72;7259641;19;2004492;-59
2022/10/05 01:54:38;;;;;;;0.00;0.00;;;;;;;15.64;79.47;99522.06;7364868;19;20033;-59
2022/10/05 01:57:37;;;;;;;0.00;0.00;;;;;;;15.63;79.20;99528.25;7321566;19;20014;-59
2022/10/05 02:00:09;;;;;;;0.03;0.03;;;;;;;15.58;79.44;99514.50;7261168;19;2005961;-60
2022/10/05 02:02:38;;;;;;;0.10;0.10;;;;;;;15.56;80.39;99513.75;7366173;19;20021;-59
2022/10/05 02:05:08;;;;;;;0.00;0.00;;;;;;;15.54;79.33;99526.16;7366500;19;21249;-57
2022/10/05 02:07:43;;;;;;;0.00;0.00;;;;;;;15.51;79.90;99521.06;7366438;19;20010;-60
2022/10/05 02:10:21;;;;;;;0.00;0.00;;;;;;;15.51;80.12;99514.06;7367139;19;20007;-59
2022/10/05 02:12:51;;;;;;;0.00;0.00;;;;;;;15.50;80.48;99514.13;7365689;19;20011;-60
2022/10/05 02:15:24;;;;;;;0.00;0.00;;;;;;;15.37;80.86;99494.81;7361371;19;20018;-59
2022/10/05 02:17:56;;;;;;;0.00;0.00;;;;;;;15.38;80.80;99501.75;7365677;19;20014;-59
2022/10/05 02:20:26;;;;;;;0.00;0.00;;;;;;;15.48;81.17;99516.88;7365903;19;20013;-59
2022/10/05 02:22:57;;;;;;;0.03;0.03;;;;;;;15.49;81.18;99522.97;7363622;19;20038;-59
2022/10/05 02:25:28;;;;;;;0.00;0.00;;;;;;;15.50;81.61;99519.41;7364868;19;20749;-58
2022/10/05 02:28:08;;;;;;;0.10;0.10;;;;;;;15.52;80.87;99513.13;7363411;19;20006;-58
2022/10/05 02:30:42;;;;;;;0.10;0.10;;;;;;;15.51;81.00;99507.91;7358251;19;20053;-58
2022/10/05 02:33:17;;;;;;;0.00;0.00;;;;;;;15.47;80.79;99511.72;7327096;19;20049;-58
2022/10/05 02:35:43;;;;;;;0.10;0.10;;;;;;;15.48;80.72;99510.75;7365247;19;20095;-57
2022/10/05 02:38:42;;;;;;;0.10;0.10;;;;;;;15.55;80.04;99506.78;7360691;19;21261;-58
2022/10/05 02:41:13;;;;;;;0.00;0.00;;;;;;;15.53;81.10;99506.06;7261738;19;2004478;-58
2022/10/05 02:43:57;;;;;;;0.05;0.05;;;;;;;15.53;80.68;99499.00;7366122;19;20014;-57
2022/10/05 02:46:40;;;;;;;0.00;0.00;;;;;;;15.52;81.37;99499.13;7364563;19;20013;-58
2022/10/05 02:49:24;;;;;;;0.00;0.00;;;;;;;15.54;80.80;99502.47;7364900;19;20006;-57
2022/10/05 02:52:04;;;;;;;0.00;0.00;;;;;;;15.54;80.63;99502.47;7365161;19;20006;-58
2022/10/05 02:54:43;;;;;;;0.00;0.00;;;;;;;15.52;81.14;99502.59;7365824;19;20010;-57
2022/10/05 02:57:15;;;;;;;0.00;0.00;;;;;;;15.52;80.74;99507.84;7364703;19;20006;-58
2022/10/05 02:59:59;;;;;;;0.00;0.00;;;;;;;15.52;80.69;99502.59;7365020;19;20015;-58
2022/10/05 03:02:49;;;;;;;0.00;0.00;;;;;;;15.50;80.20;99514.13;7362348;19;20022;-58
2022/10/05 03:05:19;;;;;;;0.00;0.00;;;;;;;15.50;80.87;99524.66;7357122;19;20012;-57
2022/10/05 03:07:53;;;;;;;0.00;0.00;;;;;;;15.52;80.89;99543.84;7365007;19;20049;-57
2022/10/05 03:10:21;;;;;;;0.00;0.00;;;;;;;15.51;80.66;99552.66;7364357;19;20013;-58
2022/10/05 03:13:17;;;;;;;0.00;0.00;;;;;;;15.50;80.05;99572.00;7364413;19;20853;-57
2022/10/05 03:16:07;;;;;;;0.00;0.00;;;;;;;15.49;79.54;99567.69;7264096;19;2004465;-58
2022/10/05 03:19:10;;;;;;;0.00;0.00;;;;;;;15.44;79.28;99572.41;7258709;19;2004661;-58
2022/10/05 03:21:47;;;;;;;0.00;0.00;;;;;;;15.37;79.69;99581.59;7252191;19;2004267;-58
2022/10/05 03:24:37;;;;;;;0.00;0.00;;;;;;;15.35;79.33;99594.84;7353709;19;20817;-57
2022/10/05 03:27:02;;;;;;;0.00;0.00;;;;;;;15.27;79.62;99604.97;7355752;19;20015;-57
2022/10/05 03:29:42;;;;;;;0.00;0.00;;;;;;;15.25;79.03;99594.53;7357080;19;22082;-58
2022/10/05 03:32:17;;;;;;;0.00;0.00;;;;;;;15.20;79.84;99585.22;7355398;19;20018;-56
2022/10/05 03:34:45;;;;;;;0.00;0.00;;;;;;;15.14;80.33;99581.19;7355426;19;20017;-58
2022/10/05 03:37:21;;;;;;;0.00;0.00;;;;;;;15.12;80.59;99588.31;7355391;19;20113;-58
2022/10/05 03:39:56;;;;;;;0.00;0.00;;;;;;;15.11;80.64;99580.53;7354129;19;20017;-58
2022/10/05 03:42:44;;;;;;;0.00;0.00;;;;;;;15.09;81.07;99577.97;7354320;19;20891;-57
2022/10/05 03:45:24;;;;;;;0.00;0.00;;;;;;;15.07;80.92;99569.34;7356668;19;20030;-57
2022/10/05 03:48:09;;;;;;;0.00;0.00;;;;;;;15.03;81.63;99567.84;7355852;19;20006;-58
2022/10/05 03:50:41;;;;;;;0.00;0.00;;;;;;;15.03;80.97;99562.56;7354339;19;20035;-57
2022/10/05 03:53:18;;;;;;;0.10;0.10;;;;;;;15.05;80.69;99560.69;7355596;19;20011;-58
2022/10/05 03:55:46;;;;;;;0.00;0.00;;;;;;;15.01;81.06;99554.78;7355420;19;20010;-58
2022/10/05 03:58:28;;;;;;;0.05;0.05;;;;;;;15.01;81.13;99559.19;7347030;19;20123;-58
2022/10/05 04:01:01;;;;;;;0.00;0.00;;;;;;;15.00;81.07;99558.34;7349309;19;20525;-58
2022/10/05 04:03:38;;;;;;;0.00;0.00;;;;;;;15.00;80.83;99562.75;7354805;19;20514;-58
2022/10/05 04:06:19;;;;;;;0.00;0.00;;;;;;;15.00;80.67;99568.00;7351253;19;20018;-58
2022/10/05 04:09:03;;;;;;;0.00;0.00;;;;;;;14.98;80.80;99578.63;7355025;19;20015;-58
2022/10/05 04:11:37;;;;;;;0.00;0.00;;;;;;;14.95;80.99;99570.06;7355052;19;20014;-57
2022/10/05 04:14:09;;;;;;;0.00;0.00;;;;;;;14.94;80.98;99568.38;7356522;19;20018;-57
2022/10/05 04:16:40;;;;;;;0.00;0.00;;;;;;;14.93;80.82;99569.31;7357803;19;20003;-56
2022/10/05 04:19:20;;;;;;;0.00;0.00;;;;;;;14.91;81.10;99558.06;7350463;19;20034;-57
2022/10/05 04:22:17;;;;;;;0.00;0.00;;;;;;;14.88;80.77;99552.97;7353043;19;20015;-57
2022/10/05 04:24:48;;;;;;;0.00;0.00;;;;;;;14.86;81.08;99570.63;7253206;19;2004584;-54
2022/10/05 04:27:18;;;;;;;0.00;0.00;;;;;;;14.84;80.63;99561.97;7352379;19;20694;-57
2022/10/05 04:30:01;;;;;;;0.00;0.00;;;;;;;14.83;80.21;99570.78;7351405;19;20052;-57
2022/10/05 04:33:05;;;;;;;0.03;0.03;;;;;;;14.77;80.74;99557.06;7350384;19;20082;-57
2022/10/05 04:35:45;;;;;;;0.00;0.00;;;;;;;14.74;81.15;99567.75;7246902;19;2004298;-58
2022/10/05 04:38:34;;;;;;;0.03;0.03;;;;;;;14.66;80.31;99543.72;7350245;19;20023;-58
2022/10/05 04:41:29;;;;;;;0.00;0.00;;;;;;;14.71;79.99;99552.16;7347613;19;20013;-54
2022/10/05 04:44:03;;;;;;;0.00;0.00;;;;;;;14.67;80.29;99555.91;7253574;19;2004517;-57
2022/10/05 04:46:50;;;;;;;0.00;0.00;;;;;;;14.64;79.56;99553.44;7353746;19;20510;-56
2022/10/05 04:49:40;;;;;;;0.00;0.00;;;;;;;14.60;79.69;99544.06;7350527;19;20010;-57
2022/10/05 04:52:05;;;;;;;0.00;0.00;;;;;;;14.54;79.60;99550.50;7354891;19;20006;-58
2022/10/05 04:54:36;;;;;;;0.00;0.00;;;;;;;14.52;79.98;99554.16;7352830;19;22752;-57
2022/10/05 04:57:06;;;;;;;0.00;0.00;;;;;;;14.47;80.12;99548.28;7352887;19;20046;-57
2022/10/05 04:59:49;;;;;;;0.00;0.00;;;;;;;14.45;80.11;99555.44;7350752;19;20740;-57
2022/10/05 05:02:17;;;;;;;0.08;0.08;;;;;;;14.40;80.35;99546.97;7355524;19;20117;-57
2022/10/05 05:04:48;;;;;;;0.00;0.00;;;;;;;14.38;80.31;99561.94;7354872;19;20082;-57
2022/10/05 05:07:35;;;;;;;0.10;0.10;;;;;;;14.37;79.57;99553.22;7349897;19;20014;-57
2022/10/05 05:10:25;;;;;;;0.00;0.00;;;;;;;14.34;80.38;99557.78;7351269;19;20010;-57
2022/10/05 05:13:02;;;;;;;0.00;0.00;;;;;;;14.32;80.27;99559.66;7355038;19;20018;-57
2022/10/05 05:15:45;;;;;;;0.00;0.00;;;;;;;14.25;79.78;99549.50;7354213;19;20601;-57
2022/10/05 05:18:16;;;;;;;0.00;0.00;;;;;;;14.26;79.44;99569.59;7355746;19;20019;-58
2022/10/05 05:20:57;;;;;;;0.00;0.00;;;;;;;14.24;78.69;99568.84;7352363;19;20757;-57
2022/10/05 05:23:34;;;;;;;0.00;0.00;;;;;;;14.17;79.94;99567.47;7355596;19;20011;-57
2022/10/05 05:26:12;;;;;;;0.00;0.00;;;;;;;14.15;80.60;99566.72;7353885;19;20097;-57
2022/10/05 05:28:51;;;;;;;0.00;0.00;;;;;;;14.13;80.79;99565.09;7354590;19;20015;-57
2022/10/05 05:31:37;;;;;;;0.00;0.00;;;;;;;14.10;81.11;99560.88;7355986;19;20774;-56
2022/10/05 05:34:44;;;;;;;0.00;0.00;;;;;;;14.09;79.38;99569.69;7351721;19;20014;-57
2022/10/05 05:37:34;;;;;;;0.00;0.00;;;;;;;14.07;79.49;99570.69;7252013;19;2004276;-57
2022/10/05 05:40:14;;;;;;;0.00;0.00;;;;;;;14.01;79.95;99566.63;7353925;19;20007;-56
2022/10/05 05:42:55;;;;;;;0.00;0.00;;;;;;;13.99;80.35;99571.13;7353829;19;20125;-56
2022/10/05 05:45:47;;;;;;;0.10;0.10;;;;;;;13.94;80.19;99571.38;7355613;19;20635;-57
2022/10/05 05:48:40;;;;;;;0.03;0.03;;;;;;;13.93;80.49;99589.81;7251139;19;2004414;-57
2022/10/05 05:51:17;;;;;;;0.00;0.00;;;;;;;13.89;80.53;99590.91;7251131;19;2004338;-57
2022/10/05 05:54:11;;;;;;;0.00;0.00;;;;;;;13.87;80.50;99579.66;7353689;19;20006;-57
2022/10/05 05:56:41;;;;;;;0.00;0.00;;;;;;;13.85;80.96;99576.28;7250481;19;2004129;-57
2022/10/05 05:59:29;;;;;;;0.00;0.00;;;;;;;13.84;79.84;99580.66;7350246;19;20006;-57
2022/10/05 06:02:16;;;;;;;0.00;0.00;;;;;;;13.81;79.78;99574.72;7360945;19;20014;-57
2022/10/05 06:04:57;;;;;;;0.00;0.00;;;;;;;13.77;80.09;99574.88;7361027;19;20014;-57
2022/10/05 06:07:27;;;;;;;0.00;0.00;;;;;;;13.71;80.82;99569.13;7356672;19;20015;-58
2022/10/05 06:09:57;;;;;;;0.00;0.00;;;;;;;13.71;81.39;99559.47;7365293;19;20785;-56
2022/10/05 06:12:30;;;;;;;0.00;0.00;;;;;;;13.70;81.04;99557.78;7365853;19;20011;-57
2022/10/05 06:15:33;;;;;;;0.00;0.00;;;;;;;13.70;80.71;99576.16;7364828;19;20072;-57
2022/10/05 06:18:04;;;;;;;0.00;0.00;;;;;;;13.69;81.04;99571.84;7264660;19;2004883;-57
2022/10/05 06:20:37;;;;;;;0.00;0.00;;;;;;;13.67;80.48;99584.19;7364106;19;20006;-57
2022/10/05 06:23:11;;;;;;;0.00;0.00;;;;;;;13.64;80.73;99584.38;7367956;19;20043;-56
2022/10/05 06:25:43;;;;;;;0.00;0.00;;;;;;;13.66;80.91;99584.28;7364840;19;20078;-57
2022/10/05 06:28:12;;;;;;;0.00;0.00;;;;;;;13.66;80.98;99587.75;7366260;19;20473;-57
2022/10/05 06:31:13;;;;;;;0.00;0.00;;;;;;;13.66;80.55;99597.38;7365462;19;20010;-57
2022/10/05 06:33:51;;;;;;;0.03;0.03;;;;;;;13.57;80.62;99588.22;7264384;19;2004166;-57
2022/10/05 06:36:19;;;;;;;0.00;0.00;;;;;;;13.64;80.71;99600.09;7368051;19;20021;-57
2022/10/05 06:39:22;;;;;;;0.00;0.00;;;;;;;13.64;80.60;99600.09;7364487;19;20014;-57
2022/10/05 06:42:06;;;;;;;0.00;0.00;;;;;;;13.61;80.94;99589.75;7256676;19;2004619;-58
2022/10/05 06:44:55;;;;;;;0.00;0.00;;;;;;;13.51;80.18;99578.06;7364942;19;20006;-56
2022/10/05 06:47:54;;;;;;;0.00;0.00;;;;;;;13.62;80.22;99601.94;7368873;19;20019;-57
2022/10/05 06:50:28;;;;;;;0.00;0.00;;;;;;;13.61;80.33;99610.75;7263911;19;2004088;-57
2022/10/05 06:53:31;;;;;;;0.00;0.00;;;;;;;13.60;80.28;99614.31;7368478;19;20003;-57
2022/10/05 06:56:17;;;;;;;0.00;0.00;;;;;;;13.57;80.87;99614.44;7267260;19;2004702;-57
2022/10/05 06:59:03;;;;;;;0.00;0.00;;;;;;;13.55;81.50;99621.56;7360151;19;20007;-57
2022/10/05 07:01:47;;;;;;;0.00;0.00;;;;;;;13.59;80.47;99638.84;7366393;19;20003;-57
2022/10/05 07:04:51;;;;;;;0.00;0.00;;;;;;;13.59;80.24;99638.84;7356362;19;20496;-58
2022/10/05 07:07:42;;;;;;;0.00;0.00;;;;;;;13.57;80.81;99640.69;7263534;19;2004149;-57
2022/10/05 07:10:30;;;;;;;0.00;0.00;;;;;;;13.57;80.24;99632.81;7328260;19;20022;-55
2022/10/05 07:13:24;;;;;;;0.00;0.00;;;;;;;13.57;80.70;99639.84;7321114;19;20106;-57
2022/10/05 07:16:10;;;;;;;0.00;0.00;;;;;;;13.55;80.53;99629.44;7237495;19;2004294;-57
2022/10/05 07:18:58;;;;;;;0.00;0.00;;;;;;;13.54;80.72;99625.13;7366457;19;20405;-56
2022/10/05 07:21:41;;;;;;;;;;;;;;;13.53;79.78;99628.66;7369391;19;20711;-58
2022/10/05 07:24:20;;;;;;;0.00;0.00;;;;;;;13.50;80.62;99647.19;7368400;19;19925;-58
2022/10/05 07:26:53;;;;;;;0.00;0.00;;;;;;;13.48;80.95;99635.91;7363309;19;20396;-57
2022/10/05 07:29:34;;;;;;;0.00;0.00;;;;;;;13.46;81.00;99637.78;7365087;19;20758;-54
2022/10/05 07:32:33;;;;;;;0.00;0.00;;;;;;;13.48;80.47;99642.03;7366416;19;20011;-58
2022/10/05 07:35:08;;;;;;;0.00;0.00;;;;;;;13.46;80.75;99637.78;7263291;19;2004524;-56
2022/10/05 07:37:53;;;;;;;0.00;0.00;;;;;;;13.46;80.81;99637.78;7366115;19;20010;-58
2022/10/05 07:40:43;;;;;;;0.00;0.00;;;;;;;13.45;80.78;99641.31;7367025;19;20006;-56
2022/10/05 07:43:29;;;;;;;0.00;0.00;;;;;;;13.44;80.17;99630.00;7368019;19;20443;-58
2022/10/05 07:45:57;;;;;;;0.00;0.00;;;;;;;13.41;80.57;99614.41;7366974;19;20011;-58
2022/10/05 07:48:43;;;;;;;0.00;0.00;;;;;;;13.40;80.92;99617.97;7367667;19;20462;-56
2022/10/05 07:51:35;;;;;;;0.00;0.00;;;;;;;13.35;80.73;99612.09;7368058;19;20010;-57
2022/10/05 07:54:03;;;;;;;0.00;0.00;;;;;;;13.38;81.16;99629.44;7266984;19;2005584;-57
2022/10/05 07:56:35;;;;;;;0.00;0.00;;;;;;;13.40;81.30;99648.59;7365970;19;20078;-57
2022/10/05 07:59:06;;;;;;;0.00;0.00;;;;;;;13.39;80.77;99667.88;7366960;19;20077;-58
2022/10/05 08:01:40;;;;;;;0.00;0.00;;;;;;;13.39;80.59;99665.25;7366048;19;20070;-57
2022/10/05 08:04:46;;;;;;;0.00;0.00;;;;;;;13.40;80.09;99672.19;7367925;19;20010;-56
2022/10/05 08:07:15;;;;;;;0.05;0.05;;;;;;;13.38;80.72;99679.25;7263587;19;2004355;-57
2022/10/05 08:10:24;;;;;;;0.00;0.00;;;;;;;13.39;80.18;99678.34;7366337;19;20485;-56
2022/10/05 08:13:23;;;;;;;0.00;0.00;;;;;;;13.38;79.87;99689.75;7264127;19;2004267;-57
2022/10/05 08:15:57;;;;;;;0.00;0.00;;;;;;;13.38;80.75;99700.25;7265768;19;2005199;-57
2022/10/05 08:18:54;;;;;;;0.10;0.10;;;;;;;13.38;80.46;99695.00;7366005;19;20043;-58
2022/10/05 08:21:26;;;;;;;0.00;0.00;;;;;;;13.36;80.85;99689.84;7264357;19;2004577;-57
2022/10/05 08:24:04;;;;;;;0.00;0.00;;;;;;;13.25;80.68;99673.81;7367297;19;20002;-57
2022/10/05 08:26:47;;;;;;;0.00;0.00;;;;;;;13.38;80.30;99698.50;7364235;19;20026;-57
2022/10/05 08:29:28;;;;;;;0.05;0.05;;;;;;;13.38;80.43;99723.84;7366128;19;20002;-57
2022/10/05 08:32:04;;;;;;;0.00;0.00;;;;;;;13.38;80.63;99708.97;7365171;19;20867;-57
2022/10/05 08:34:46;;;;;;;0.00;0.00;;;;;;;13.40;80.83;99701.03;7364052;19;19994;-57
2022/10/05 08:37:14;;;;;;;0.00;0.00;;;;;;;13.38;81.18;99702.84;7365826;19;20118;-58
2022/10/05 08:39:52;;;;;;;0.00;0.00;;;;;;;13.39;80.56;99720.31;7365249;19;20018;-57
2022/10/05 08:42:50;;;;;;;0.00;0.00;;;;;;;13.42;80.49;99726.22;7368142;19;20006;-57
2022/10/05 08:45:31;;;;;;;0.00;0.00;;;;;;;13.39;80.52;99720.31;7263902;19;2004291;-57
2022/10/05 08:48:13;;;;;;;0.00;0.00;;;;;;;13.42;80.50;99717.53;7365659;19;20006;-57
2022/10/05 08:51:06;;;;;;;0.00;0.00;;;;;;;13.43;80.31;99724.47;7363824;19;20022;-58
2022/10/05 08:54:02;;;;;;;0.00;0.00;;;;;;;13.43;80.54;99727.06;7264243;19;2004566;-57
2022/10/05 08:56:34;;;;;;;0.00;0.00;;;;;;;13.41;80.67;99729.78;7262651;19;2004418;-56
2022/10/05 08:59:17;;;;;;;0.00;0.00;;;;;;;13.44;80.91;99739.28;7362865;19;20025;-57
2022/10/05 09:02:04;;;;;;;0.00;0.00;;;;;;;13.41;80.78;99739.44;7362611;19;20021;-56
2022/10/05 09:04:45;;;;;;;0.00;0.00;;;;;;;13.45;80.89;99730.50;7366712;19;20029;-57
2022/10/05 09:07:30;;;;;;;0.00;0.00;;;;;;;13.45;80.97;99735.75;7364291;19;20348;-56
2022/10/05 09:10:14;;;;;;;0.10;0.10;;;;;;;13.47;80.33;99744.38;7365978;19;20043;-57
2022/10/05 09:13:13;;;;;;;0.00;0.00;;;;;;;13.48;80.89;99751.31;7362509;19;20463;-57
2022/10/05 09:15:41;;;;;;;0.00;0.00;;;;;;;13.45;81.13;99759.34;7262491;19;2004348;-57
2022/10/05 09:18:21;;;;;;;0.00;0.00;;;;;;;13.48;80.81;99756.53;7365984;19;20550;-57
2022/10/05 09:20:52;;;;;;;0.03;0.03;;;;;;;13.47;80.70;99754.84;7364947;19;20002;-57
2022/10/05 09:23:43;;;;;;;0.00;0.00;;;;;;;13.45;80.93;99767.22;7366087;19;20525;-57
2022/10/05 09:26:27;;;;;;;0.00;0.00;;;;;;;13.45;80.58;99767.22;7262425;19;2004383;-57
2022/10/05 09:29:26;;;;;;;0.00;0.00;;;;;;;13.46;80.50;99769.75;7363723;19;20042;-57
2022/10/05 09:31:57;;;;;;;0.00;0.00;;;;;;;13.45;81.14;99768.06;7258642;19;2004245;-58
2022/10/05 09:34:56;;;;;;;0.00;0.00;;;;;;;13.47;81.19;99784.56;7361587;19;20361;-56
2022/10/05 09:37:27;;;;;;;0.00;0.00;;;;;;;13.45;81.09;99780.31;7260281;19;2004481;-57
2022/10/05 09:40:21;;;;;;;0.00;0.00;;;;;;;13.47;81.40;99775.84;7363427;19;20007;-56
2022/10/05 09:42:53;;;;;;;0.00;0.00;;;;;;;13.52;81.24;99791.34;7264891;19;2004573;-56
2022/10/05 09:45:25;;;;;;;0.10;0.10;;;;;;;13.53;81.34;99790.41;7370804;19;20016;-56
2022/10/05 09:48:03;;;;;;;0.00;0.00;;;;;;;13.53;81.32;99801.75;7371598;19;20024;-57
2022/10/05 09:50:39;;;;;;;0.00;0.00;;;;;;;13.56;80.83;99803.41;7368171;19;20011;-57
2022/10/05 09:53:39;;;;;;;0.00;0.00;;;;;;;13.56;81.05;99806.03;7370879;19;20549;-55
2022/10/05 09:56:19;;;;;;;0.10;0.10;;;;;;;13.56;81.17;99804.25;7266787;19;2004237;-56
2022/10/05 09:59:02;;;;;;;0.00;0.00;;;;;;;13.56;81.34;99798.16;7367816;19;20038;-56
2022/10/05 10:01:50;;;;;;;0.00;0.00;;;;;;;13.57;80.99;99803.31;7367198;19;20038;-56
2022/10/05 10:04:25;;;;;;;0.00;0.00;;;;;;;13.58;81.39;99786.63;7371153;19;20010;-56
2022/10/05 10:07:03;;;;;;;0.00;0.00;;;;;;;13.59;81.46;99801.47;7366029;19;20070;-56
2022/10/05 10:09:43;;;;;;;0.10;0.10;;;;;;;13.64;81.33;99804.72;7366483;19;20115;-57
2022/10/05 10:12:24;;;;;;;0.00;0.00;;;;;;;13.69;81.56;99815.84;7363450;19;20609;-57
2022/10/05 10:15:11;;;;;;;0.00;0.00;;;;;;;13.75;81.74;99807.66;7366065;19;20049;-57
2022/10/05 10:17:54;;;;;;;0.00;0.00;;;;;;;13.84;81.96;99810.72;7362897;19;20125;-57
2022/10/05 10:20:34;;;;;;;0.03;0.03;;;;;;;13.91;82.13;99806.88;7359414;19;20759;-55
2022/10/05 10:23:05;;;;;;;0.00;0.00;;;;;;;13.95;82.15;99808.44;7364040;19;20026;-57
2022/10/05 10:25:57;;;;;;;0.10;0.10;;;;;;;14.08;82.11;99817.38;7360474;19;20013;-57
2022/10/05 10:28:41;;;;;;;0.00;0.00;;;;;;;14.16;82.06;99844.09;7367339;19;20002;-57
2022/10/05 10:31:31;;;;;;;0.00;0.00;;;;;;;14.20;81.86;99832.50;7364772;19;20015;-57
2022/10/05 10:34:27;;;;;;;0.00;0.00;;;;;;;14.25;80.97;99833.13;7368472;19;20085;-57
2022/10/05 10:37:23;;;;;;;0.00;0.00;;;;;;;14.27;81.39;99839.13;7261837;19;2004601;-56
2022/10/05 10:40:00;;;;;;;0.00;0.00;;;;;;;14.31;81.18;99852.09;7265241;19;2004527;-58
2022/10/05 10:42:58;;;;;;;0.00;0.00;;;;;;;14.37;81.08;99851.78;7366987;19;20027;-56
2022/10/05 10:45:47;;;;;;;0.10;0.10;;;;;;;14.39;81.10;99849.91;7262248;19;2004266;-57
2022/10/05 10:48:18;;;;;;;0.00;0.00;;;;;;;14.42;80.86;99860.28;7366933;19;20011;-56
2022/10/05 10:51:08;;;;;;;0.00;0.00;;;;;;;14.45;80.86;99871.47;7366351;19;20006;-57
2022/10/05 10:54:05;;;;;;;0.00;0.00;;;;;;;14.53;80.88;99861.44;7366713;19;19998;-55
2022/10/05 10:56:53;;;;;;;0.10;0.10;;;;;;;14.58;80.90;99860.34;7264122;19;2004424;-56
2022/10/05 10:59:40;;;;;;;0.10;0.10;;;;;;;14.63;80.66;99863.59;7366813;19;20094;-57
2022/10/05 11:02:25;;;;;;;0.05;0.05;;;;;;;14.64;80.58;99875.78;7367278;19;20694;-58
2022/10/05 11:05:06;;;;;;;0.00;0.00;;;;;;;14.67;80.40;99867.75;7369325;19;20002;-57
2022/10/05 11:08:16;;;;;;;0.00;0.00;;;;;;;14.70;80.21;99876.34;7368525;19;20595;-57
2022/10/05 11:11:14;;;;;;;0.00;0.00;;;;;;;14.76;80.74;99870.75;7265331;19;2004556;-57
2022/10/05 11:14:02;;;;;;;0.10;0.10;;;;;;;14.88;81.58;99884.16;7267438;19;2004392;-57
2022/10/05 11:16:52;;;;;;;0.00;0.00;;;;;;;15.28;81.91;99880.22;7261472;19;2004307;-57
2022/10/05 11:19:45;;;;;;;0.00;0.00;;;;;;;15.66;81.82;99883.38;7263653;19;2004302;-57
2022/10/05 11:22:39;;;;;;;0.10;0.10;;;;;;;16.25;81.82;99886.09;7266296;19;2004481;-56
2022/10/05 11:25:17;;;;;;;0.00;0.00;;;;;;;16.61;80.03;99889.16;7267038;19;2004479;-58
2022/10/05 11:28:04;;;;;;;0.05;0.05;;;;;;;17.06;79.07;99884.69;7367251;19;20044;-57
2022/10/05 11:31:00;;;;;;;0.00;0.00;;;;;;;17.32;77.87;99884.81;7365105;19;20032;-57
2022/10/05 11:34:07;;;;;;;0.00;0.00;;;;;;;17.52;77.26;99879.13;7262964;19;2004605;-58
2022/10/05 11:36:52;;;;;;;;;;;;;;;17.73;76.31;99884.81;7263199;19;2004354;-58
2022/10/05 11:39:17;;;;;;;0.03;0.03;;;;;;;17.69;75.72;99891.25;7368656;19;19993;-57
2022/10/05 11:42:07;;;;;;;0.03;0.03;;;;;;;17.81;74.98;99897.53;7368125;19;21692;-58
2022/10/05 11:44:38;;;;;;;0.10;0.10;;;;;;;17.87;74.39;99905.06;7267009;19;2004432;-58
2022/10/05 11:47:10;;;;;;;0.00;0.00;;;;;;;17.91;73.63;99897.78;7364876;19;20006;-58
2022/10/05 11:49:51;;;;;;;0.05;0.05;;;;;;;17.94;73.35;99919.53;7365435;19;20002;-58
2022/10/05 11:52:50;;;;;;;0.00;0.00;;;;;;;17.94;72.74;99916.06;7365212;19;20023;-57
2022/10/05 11:55:40;;;;;;;0.08;0.08;;;;;;;17.78;71.98;99919.72;7263146;19;2004163;-58
2022/10/05 11:58:28;;;;;;;0.00;0.00;;;;;;;17.60;72.67;99929.66;7364025;19;20042;-58
2022/10/05 12:01:11;;;;;;;0.00;0.00;;;;;;;17.41;73.08;99925.63;7364202;19;20010;-58
2022/10/05 12:04:08;;;;;;;0.08;0.08;;;;;;;17.25;73.74;99937.16;7363826;19;20010;-58
2022/10/05 12:06:39;;;;;;;0.08;0.08;;;;;;;17.08;73.29;99961.06;7254388;19;2004794;-57
2022/10/05 12:10:12;;;;;;;0.00;0.00;;;;;;;16.95;72.44;99966.25;7364019;19;20108;-58
2022/10/05 12:12:34;;;;;;;0.00;0.00;;;;;;;16.66;72.40;99965.34;7265635;19;2004360;-58
2022/10/05 12:15:18;;;;;;;0.00;0.00;;;;;;;16.45;71.75;99967.47;7367576;19;20016;-58
2022/10/05 12:18:12;;;;;;;0.10;0.10;;;;;;;16.20;71.54;99989.13;7360813;19;20025;-58
2022/10/05 12:21:01;;;;;;;0.00;0.00;;;;;;;15.93;71.52;99991.53;7261439;19;2004377;-58
2022/10/05 12:23:46;;;;;;;0.00;0.00;;;;;;;15.62;72.94;99971.31;7261283;19;2005935;-58
2022/10/05 12:26:43;;;;;;;0.00;0.00;;;;;;;15.51;74.91;99968.38;7364485;19;20123;-58
2022/10/05 12:29:26;;;;;;;0.00;0.00;;;;;;;15.54;78.05;99979.59;7261933;19;2004363;-58
2022/10/05 12:32:06;;;;;;;0.10;0.10;;;;;;;15.74;78.78;99975.91;7363314;19;20011;-58
2022/10/05 12:34:47;;;;;;;0.00;0.00;;;;;;;16.10;79.37;99974.78;7363513;19;20458;-58
2022/10/05 12:37:40;;;;;;;0.00;0.00;;;;;;;16.43;78.84;99969.34;7361073;19;20006;-58
2022/10/05 12:40:22;;;;;;;0.10;0.10;;;;;;;16.75;77.92;99964.84;7262874;19;2004516;-59